sensor_id;sensor_type;location;lat;lon;timestamp;P1;durP1;ratioP1;P2;durP2;ratioP2
6432;SDS011;3249;42.690;23.260;2022-11-15T00:01:15;80.63;;;46.40;;
6432;SDS011;3249;42.690;23.260;2022-11-15T00:03:42;86.00;;;48.03;;
6432;SDS011;3249;42.690;23.260;2022-11-15T00:06:08;82.40;;;49.23;;
6432;SDS011;3249;42.690;23.260;2022-11-15T00:08:33;84.13;;;47.73;;
6432;SDS011;3249;42.690;23.260;2022-11-15T00:11:00;86.70;;;48.33;;
6432;SDS011;3249;42.690;23.260;2022-11-15T00:13:27;81.90;;;47.97;;
6432;SDS011;3249;42.690;23.260;2022-11-15T00:15:53;90.87;;;48.83;;
6432;SDS011;3249;42.690;23.260;2022-11-15T00:18:22;89.47;;;48.63;;
6432;SDS011;3249;42.690;23.260;2022-11-15T00:20:48;95.23;;;50.90;;
6432;SDS011;3249;42.690;23.260;2022-11-15T00:23:13;92.43;;;47.90;;
6432;SDS011;3249;42.690;23.260;2022-11-15T00:25:39;88.07;;;48.67;;
6432;SDS011;3249;42.690;23.260;2022-11-15T00:28:04;91.30;;;49.43;;
6432;SDS011;3249;42.690;23.260;2022-11-15T00:30:29;88.33;;;46.70;;
6432;SDS011;3249;42.690;23.260;2022-11-15T00:32:55;74.63;;;45.03;;
6432;SDS011;3249;42.690;23.260;2022-11-15T00:35:21;77.90;;;46.27;;
6432;SDS011;3249;42.690;23.260;2022-11-15T00:37:47;74.43;;;45.83;;
6432;SDS011;3249;42.690;23.260;2022-11-15T00:40:12;75.93;;;47.23;;
6432;SDS011;3249;42.690;23.260;2022-11-15T00:42:39;81.03;;;46.90;;
6432;SDS011;3249;42.690;23.260;2022-11-15T00:45:04;74.67;;;45.67;;
6432;SDS011;3249;42.690;23.260;2022-11-15T00:47:30;82.93;;;48.43;;
6432;SDS011;3249;42.690;23.260;2022-11-15T00:49:56;76.53;;;46.00;;
6432;SDS011;3249;42.690;23.260;2022-11-15T00:52:21;88.30;;;49.20;;
6432;SDS011;3249;42.690;23.260;2022-11-15T00:54:46;84.60;;;47.50;;
6432;SDS011;3249;42.690;23.260;2022-11-15T00:57:12;79.77;;;46.87;;
6432;SDS011;3249;42.690;23.260;2022-11-15T00:59:37;78.97;;;46.23;;
6432;SDS011;3249;42.690;23.260;2022-11-15T01:02:03;80.80;;;47.90;;
6432;SDS011;3249;42.690;23.260;2022-11-15T01:04:28;88.63;;;48.93;;
6432;SDS011;3249;42.690;23.260;2022-11-15T01:06:54;91.20;;;50.07;;
6432;SDS011;3249;42.690;23.260;2022-11-15T01:09:19;109.73;;;53.77;;
6432;SDS011;3249;42.690;23.260;2022-11-15T01:11:45;107.87;;;56.50;;
6432;SDS011;3249;42.690;23.260;2022-11-15T01:14:10;89.83;;;50.27;;
6432;SDS011;3249;42.690;23.260;2022-11-15T01:16:35;90.87;;;51.00;;
6432;SDS011;3249;42.690;23.260;2022-11-15T01:19:01;90.03;;;50.83;;
6432;SDS011;3249;42.690;23.260;2022-11-15T01:21:26;90.33;;;52.23;;
6432;SDS011;3249;42.690;23.260;2022-11-15T01:23:53;98.37;;;52.10;;
6432;SDS011;3249;42.690;23.260;2022-11-15T01:26:19;97.87;;;51.50;;
6432;SDS011;3249;42.690;23.260;2022-11-15T01:28:45;84.57;;;46.77;;
6432;SDS011;3249;42.690;23.260;2022-11-15T01:31:17;82.90;;;49.87;;
6432;SDS011;3249;42.690;23.260;2022-11-15T01:33:45;82.07;;;48.23;;
6432;SDS011;3249;42.690;23.260;2022-11-15T01:36:12;85.03;;;47.57;;
6432;SDS011;3249;42.690;23.260;2022-11-15T01:38:39;88.90;;;47.77;;
6432;SDS011;3249;42.690;23.260;2022-11-15T01:41:05;88.07;;;50.33;;
6432;SDS011;3249;42.690;23.260;2022-11-15T01:43:31;86.93;;;47.57;;
6432;SDS011;3249;42.690;23.260;2022-11-15T01:46:00;81.00;;;47.10;;
6432;SDS011;3249;42.690;23.260;2022-11-15T01:48:32;86.07;;;47.43;;
6432;SDS011;3249;42.690;23.260;2022-11-15T01:50:59;83.90;;;48.77;;
6432;SDS011;3249;42.690;23.260;2022-11-15T01:53:27;80.07;;;46.90;;
6432;SDS011;3249;42.690;23.260;2022-11-15T01:55:54;78.33;;;46.47;;
6432;SDS011;3249;42.690;23.260;2022-11-15T01:58:21;81.80;;;44.50;;
6432;SDS011;3249;42.690;23.260;2022-11-15T02:00:47;81.30;;;45.67;;
6432;SDS011;3249;42.690;23.260;2022-11-15T02:03:14;77.27;;;43.30;;
6432;SDS011;3249;42.690;23.260;2022-11-15T02:05:40;76.03;;;42.67;;
6432;SDS011;3249;42.690;23.260;2022-11-15T02:08:06;71.57;;;43.53;;
6432;SDS011;3249;42.690;23.260;2022-11-15T02:10:44;72.13;;;42.30;;
6432;SDS011;3249;42.690;23.260;2022-11-15T02:13:14;74.63;;;42.83;;
6432;SDS011;3249;42.690;23.260;2022-11-15T02:16:27;71.27;;;40.07;;
6432;SDS011;3249;42.690;23.260;2022-11-15T02:18:39;72.67;;;41.13;;
6432;SDS011;3249;42.690;23.260;2022-11-15T02:32:26;68.43;;;40.97;;
6432;SDS011;3249;42.690;23.260;2022-11-15T02:34:56;67.57;;;40.50;;
6432;SDS011;3249;42.690;23.260;2022-11-15T02:37:42;74.03;;;41.30;;
6432;SDS011;3249;42.690;23.260;2022-11-15T02:42:57;65.47;;;42.17;;
6432;SDS011;3249;42.690;23.260;2022-11-15T02:45:50;68.13;;;40.63;;
6432;SDS011;3249;42.690;23.260;2022-11-15T02:48:21;68.60;;;41.80;;
6432;SDS011;3249;42.690;23.260;2022-11-15T02:50:49;67.00;;;40.70;;
6432;SDS011;3249;42.690;23.260;2022-11-15T02:53:16;70.80;;;42.40;;
6432;SDS011;3249;42.690;23.260;2022-11-15T02:55:43;73.77;;;41.40;;
6432;SDS011;3249;42.690;23.260;2022-11-15T03:00:58;71.00;;;41.43;;
6432;SDS011;3249;42.690;23.260;2022-11-15T03:11:35;66.40;;;40.23;;
6432;SDS011;3249;42.690;23.260;2022-11-15T03:16:35;61.00;;;37.10;;
6432;SDS011;3249;42.690;23.260;2022-11-15T03:19:05;68.23;;;43.13;;
6432;SDS011;3249;42.690;23.260;2022-11-15T03:21:37;126.23;;;64.57;;
6432;SDS011;3249;42.690;23.260;2022-11-15T03:24:05;100.27;;;50.37;;
6432;SDS011;3249;42.690;23.260;2022-11-15T03:26:33;89.50;;;50.60;;
6432;SDS011;3249;42.690;23.260;2022-11-15T03:29:05;70.60;;;42.37;;
6432;SDS011;3249;42.690;23.260;2022-11-15T03:31:37;72.47;;;41.03;;
6432;SDS011;3249;42.690;23.260;2022-11-15T03:34:55;65.97;;;39.93;;
6432;SDS011;3249;42.690;23.260;2022-11-15T03:37:04;63.93;;;39.13;;
6432;SDS011;3249;42.690;23.260;2022-11-15T03:39:32;73.57;;;40.37;;
6432;SDS011;3249;42.690;23.260;2022-11-15T03:47:17;80.40;;;44.63;;
6432;SDS011;3249;42.690;23.260;2022-11-15T03:49:49;85.93;;;44.57;;
6432;SDS011;3249;42.690;23.260;2022-11-15T03:52:18;81.67;;;45.47;;
6432;SDS011;3249;42.690;23.260;2022-11-15T03:54:55;78.87;;;44.77;;
6432;SDS011;3249;42.690;23.260;2022-11-15T03:57:22;84.60;;;43.67;;
6432;SDS011;3249;42.690;23.260;2022-11-15T03:59:47;83.07;;;47.13;;
6432;SDS011;3249;42.690;23.260;2022-11-15T04:02:13;76.93;;;45.50;;
6432;SDS011;3249;42.690;23.260;2022-11-15T04:04:38;81.37;;;46.53;;
6432;SDS011;3249;42.690;23.260;2022-11-15T04:07:04;92.90;;;49.03;;
6432;SDS011;3249;42.690;23.260;2022-11-15T04:09:30;85.20;;;47.70;;
6432;SDS011;3249;42.690;23.260;2022-11-15T04:11:55;117.90;;;52.90;;
6432;SDS011;3249;42.690;23.260;2022-11-15T04:14:20;95.90;;;50.73;;
6432;SDS011;3249;42.690;23.260;2022-11-15T04:16:46;100.90;;;51.23;;
6432;SDS011;3249;42.690;23.260;2022-11-15T04:19:11;148.93;;;80.53;;
6432;SDS011;3249;42.690;23.260;2022-11-15T04:21:55;159.93;;;83.93;;
6432;SDS011;3249;42.690;23.260;2022-11-15T04:24:39;194.27;;;99.97;;
6432;SDS011;3249;42.690;23.260;2022-11-15T04:27:04;152.53;;;84.50;;
6432;SDS011;3249;42.690;23.260;2022-11-15T04:29:30;183.37;;;93.27;;
6432;SDS011;3249;42.690;23.260;2022-11-15T04:32:05;169.53;;;100.60;;
6432;SDS011;3249;42.690;23.260;2022-11-15T04:34:31;176.37;;;98.23;;
6432;SDS011;3249;42.690;23.260;2022-11-15T04:36:57;143.43;;;75.47;;
6432;SDS011;3249;42.690;23.260;2022-11-15T04:39:38;144.77;;;79.07;;
6432;SDS011;3249;42.690;23.260;2022-11-15T04:42:04;147.47;;;75.80;;
6432;SDS011;3249;42.690;23.260;2022-11-15T04:44:30;139.67;;;77.07;;
6432;SDS011;3249;42.690;23.260;2022-11-15T04:46:55;105.57;;;58.83;;
6432;SDS011;3249;42.690;23.260;2022-11-15T04:49:21;115.13;;;58.43;;
6432;SDS011;3249;42.690;23.260;2022-11-15T04:51:47;109.07;;;54.30;;
6432;SDS011;3249;42.690;23.260;2022-11-15T04:54:12;104.63;;;53.97;;
6432;SDS011;3249;42.690;23.260;2022-11-15T04:56:38;106.87;;;54.30;;
6432;SDS011;3249;42.690;23.260;2022-11-15T04:59:03;118.77;;;58.33;;
6432;SDS011;3249;42.690;23.260;2022-11-15T05:01:29;107.03;;;57.20;;
6432;SDS011;3249;42.690;23.260;2022-11-15T05:03:54;114.33;;;54.27;;
6432;SDS011;3249;42.690;23.260;2022-11-15T05:06:38;99.67;;;50.03;;
6432;SDS011;3249;42.690;23.260;2022-11-15T05:09:04;109.13;;;51.03;;
6432;SDS011;3249;42.690;23.260;2022-11-15T05:11:29;106.10;;;51.27;;
6432;SDS011;3249;42.690;23.260;2022-11-15T05:13:55;112.43;;;49.50;;
6432;SDS011;3249;42.690;23.260;2022-11-15T05:16:21;116.90;;;49.63;;
6432;SDS011;3249;42.690;23.260;2022-11-15T05:18:46;136.23;;;51.07;;
6432;SDS011;3249;42.690;23.260;2022-11-15T05:21:12;154.73;;;53.30;;
6432;SDS011;3249;42.690;23.260;2022-11-15T05:23:39;150.97;;;48.60;;
6432;SDS011;3249;42.690;23.260;2022-11-15T05:26:06;174.97;;;54.13;;
6432;SDS011;3249;42.690;23.260;2022-11-15T05:28:32;175.03;;;52.77;;
6432;SDS011;3249;42.690;23.260;2022-11-15T05:31:32;196.73;;;49.50;;
6432;SDS011;3249;42.690;23.260;2022-11-15T05:33:51;141.37;;;48.77;;
6432;SDS011;3249;42.690;23.260;2022-11-15T05:36:51;175.70;;;65.70;;
6432;SDS011;3249;42.690;23.260;2022-11-15T05:39:10;181.77;;;69.70;;
6432;SDS011;3249;42.690;23.260;2022-11-15T05:41:41;227.03;;;80.53;;
6432;SDS011;3249;42.690;23.260;2022-11-15T05:44:10;247.37;;;93.63;;
6432;SDS011;3249;42.690;23.260;2022-11-15T05:46:39;317.63;;;108.40;;
6432;SDS011;3249;42.690;23.260;2022-11-15T05:49:06;375.10;;;136.30;;
6432;SDS011;3249;42.690;23.260;2022-11-15T05:51:34;419.57;;;182.53;;
6432;SDS011;3249;42.690;23.260;2022-11-15T05:54:00;455.53;;;191.97;;
6432;SDS011;3249;42.690;23.260;2022-11-15T05:56:26;400.57;;;161.77;;
6432;SDS011;3249;42.690;23.260;2022-11-15T05:58:53;368.27;;;141.00;;
6432;SDS011;3249;42.690;23.260;2022-11-15T06:01:20;377.87;;;151.50;;
6432;SDS011;3249;42.690;23.260;2022-11-15T06:03:45;419.57;;;170.93;;
6432;SDS011;3249;42.690;23.260;2022-11-15T06:06:11;403.37;;;183.17;;
6432;SDS011;3249;42.690;23.260;2022-11-15T06:08:36;383.00;;;164.80;;
6432;SDS011;3249;42.690;23.260;2022-11-15T06:11:03;339.77;;;144.03;;
6432;SDS011;3249;42.690;23.260;2022-11-15T06:13:30;306.40;;;126.73;;
6432;SDS011;3249;42.690;23.260;2022-11-15T06:15:55;332.20;;;118.03;;
6432;SDS011;3249;42.690;23.260;2022-11-15T06:18:21;288.60;;;112.77;;
6432;SDS011;3249;42.690;23.260;2022-11-15T06:20:47;297.63;;;103.93;;
6432;SDS011;3249;42.690;23.260;2022-11-15T06:23:12;357.40;;;117.13;;
6432;SDS011;3249;42.690;23.260;2022-11-15T06:25:38;292.33;;;108.03;;
6432;SDS011;3249;42.690;23.260;2022-11-15T06:28:03;246.93;;;96.97;;
6432;SDS011;3249;42.690;23.260;2022-11-15T06:30:29;252.70;;;91.83;;
6432;SDS011;3249;42.690;23.260;2022-11-15T06:33:04;230.80;;;84.90;;
6432;SDS011;3249;42.690;23.260;2022-11-15T06:35:32;224.03;;;83.00;;
6432;SDS011;3249;42.690;23.260;2022-11-15T06:38:06;163.10;;;56.77;;
6432;SDS011;3249;42.690;23.260;2022-11-15T06:40:35;155.87;;;56.73;;
6432;SDS011;3249;42.690;23.260;2022-11-15T06:43:02;206.43;;;72.47;;
6432;SDS011;3249;42.690;23.260;2022-11-15T06:45:28;204.13;;;76.00;;
6432;SDS011;3249;42.690;23.260;2022-11-15T06:47:54;137.50;;;53.47;;
6432;SDS011;3249;42.690;23.260;2022-11-15T06:50:19;120.37;;;59.20;;
6432;SDS011;3249;42.690;23.260;2022-11-15T06:52:44;297.90;;;100.60;;
6432;SDS011;3249;42.690;23.260;2022-11-15T06:55:10;243.07;;;96.57;;
6432;SDS011;3249;42.690;23.260;2022-11-15T06:57:36;220.47;;;89.50;;
6432;SDS011;3249;42.690;23.260;2022-11-15T07:00:03;173.23;;;66.93;;
6432;SDS011;3249;42.690;23.260;2022-11-15T07:02:29;176.70;;;62.23;;
6432;SDS011;3249;42.690;23.260;2022-11-15T07:04:54;170.77;;;58.53;;
6432;SDS011;3249;42.690;23.260;2022-11-15T07:07:20;185.17;;;60.10;;
6432;SDS011;3249;42.690;23.260;2022-11-15T07:09:45;190.43;;;74.47;;
6432;SDS011;3249;42.690;23.260;2022-11-15T07:12:10;255.17;;;99.50;;
6432;SDS011;3249;42.690;23.260;2022-11-15T07:14:36;231.83;;;88.03;;
6432;SDS011;3249;42.690;23.260;2022-11-15T07:17:03;174.53;;;64.93;;
6432;SDS011;3249;42.690;23.260;2022-11-15T07:19:29;207.10;;;79.87;;
6432;SDS011;3249;42.690;23.260;2022-11-15T07:21:55;185.43;;;79.10;;
6432;SDS011;3249;42.690;23.260;2022-11-15T07:24:20;205.60;;;76.30;;
6432;SDS011;3249;42.690;23.260;2022-11-15T07:26:45;197.43;;;72.37;;
6432;SDS011;3249;42.690;23.260;2022-11-15T07:29:11;184.10;;;71.47;;
6432;SDS011;3249;42.690;23.260;2022-11-15T07:31:36;170.80;;;62.47;;
6432;SDS011;3249;42.690;23.260;2022-11-15T07:34:02;155.63;;;58.10;;
6432;SDS011;3249;42.690;23.260;2022-11-15T07:36:27;161.63;;;62.93;;
6432;SDS011;3249;42.690;23.260;2022-11-15T07:38:53;178.13;;;65.87;;
6432;SDS011;3249;42.690;23.260;2022-11-15T07:41:18;188.07;;;67.73;;
6432;SDS011;3249;42.690;23.260;2022-11-15T07:43:43;149.63;;;66.27;;
6432;SDS011;3249;42.690;23.260;2022-11-15T07:46:09;169.03;;;67.87;;
6432;SDS011;3249;42.690;23.260;2022-11-15T07:48:38;133.10;;;59.57;;
6432;SDS011;3249;42.690;23.260;2022-11-15T07:51:05;171.77;;;64.80;;
6432;SDS011;3249;42.690;23.260;2022-11-15T07:53:31;191.33;;;62.63;;
6432;SDS011;3249;42.690;23.260;2022-11-15T07:55:56;158.03;;;62.80;;
6432;SDS011;3249;42.690;23.260;2022-11-15T07:58:22;137.47;;;56.07;;
6432;SDS011;3249;42.690;23.260;2022-11-15T08:00:47;154.93;;;59.23;;
6432;SDS011;3249;42.690;23.260;2022-11-15T08:03:13;162.93;;;63.87;;
6432;SDS011;3249;42.690;23.260;2022-11-15T08:05:41;166.23;;;62.67;;
6432;SDS011;3249;42.690;23.260;2022-11-15T08:08:08;151.87;;;64.87;;
6432;SDS011;3249;42.690;23.260;2022-11-15T08:10:35;159.77;;;67.90;;
6432;SDS011;3249;42.690;23.260;2022-11-15T08:13:06;167.17;;;67.67;;
6432;SDS011;3249;42.690;23.260;2022-11-15T08:15:34;180.33;;;66.23;;
6432;SDS011;3249;42.690;23.260;2022-11-15T08:18:01;167.67;;;83.00;;
6432;SDS011;3249;42.690;23.260;2022-11-15T08:20:29;134.50;;;55.60;;
6432;SDS011;3249;42.690;23.260;2022-11-15T08:22:55;140.47;;;58.07;;
6432;SDS011;3249;42.690;23.260;2022-11-15T08:25:22;145.10;;;57.73;;
6432;SDS011;3249;42.690;23.260;2022-11-15T08:27:50;134.47;;;58.90;;
6432;SDS011;3249;42.690;23.260;2022-11-15T08:30:16;167.57;;;72.13;;
6432;SDS011;3249;42.690;23.260;2022-11-15T08:32:42;146.07;;;66.57;;
6432;SDS011;3249;42.690;23.260;2022-11-15T08:35:07;159.57;;;68.93;;
6432;SDS011;3249;42.690;23.260;2022-11-15T08:37:33;156.97;;;69.33;;
6432;SDS011;3249;42.690;23.260;2022-11-15T08:39:59;161.37;;;68.23;;
6432;SDS011;3249;42.690;23.260;2022-11-15T08:42:24;170.37;;;75.97;;
6432;SDS011;3249;42.690;23.260;2022-11-15T08:44:49;171.20;;;76.83;;
6432;SDS011;3249;42.690;23.260;2022-11-15T08:47:15;166.50;;;77.47;;
6432;SDS011;3249;42.690;23.260;2022-11-15T08:49:40;180.27;;;79.83;;
6432;SDS011;3249;42.690;23.260;2022-11-15T08:52:05;175.57;;;78.10;;
6432;SDS011;3249;42.690;23.260;2022-11-15T08:54:31;176.30;;;82.07;;
6432;SDS011;3249;42.690;23.260;2022-11-15T08:56:56;191.27;;;82.37;;
6432;SDS011;3249;42.690;23.260;2022-11-15T08:59:22;193.20;;;83.83;;
6432;SDS011;3249;42.690;23.260;2022-11-15T09:01:47;197.60;;;91.43;;
6432;SDS011;3249;42.690;23.260;2022-11-15T09:04:13;190.67;;;88.57;;
6432;SDS011;3249;42.690;23.260;2022-11-15T09:06:38;200.57;;;90.30;;
6432;SDS011;3249;42.690;23.260;2022-11-15T09:09:04;210.50;;;92.03;;
6432;SDS011;3249;42.690;23.260;2022-11-15T09:11:29;201.97;;;90.13;;
6432;SDS011;3249;42.690;23.260;2022-11-15T09:13:54;199.13;;;90.13;;
6432;SDS011;3249;42.690;23.260;2022-11-15T09:16:20;196.40;;;89.50;;
6432;SDS011;3249;42.690;23.260;2022-11-15T09:18:46;185.23;;;88.73;;
6432;SDS011;3249;42.690;23.260;2022-11-15T09:21:12;190.83;;;87.50;;
6432;SDS011;3249;42.690;23.260;2022-11-15T09:23:37;180.60;;;85.57;;
6432;SDS011;3249;42.690;23.260;2022-11-15T09:26:03;205.03;;;92.03;;
6432;SDS011;3249;42.690;23.260;2022-11-15T09:28:29;195.87;;;89.53;;
6432;SDS011;3249;42.690;23.260;2022-11-15T09:30:56;178.07;;;81.53;;
6432;SDS011;3249;42.690;23.260;2022-11-15T09:33:23;209.83;;;91.57;;
6432;SDS011;3249;42.690;23.260;2022-11-15T09:35:49;188.43;;;89.40;;
6432;SDS011;3249;42.690;23.260;2022-11-15T09:38:14;187.10;;;89.00;;
6432;SDS011;3249;42.690;23.260;2022-11-15T09:40:40;186.80;;;86.13;;
6432;SDS011;3249;42.690;23.260;2022-11-15T09:50:57;153.27;;;79.13;;
6432;SDS011;3249;42.690;23.260;2022-11-15T09:54:11;170.57;;;81.50;;
6432;SDS011;3249;42.690;23.260;2022-11-15T09:56:19;155.73;;;76.63;;
6432;SDS011;3249;42.690;23.260;2022-11-15T09:58:51;156.20;;;70.70;;
6432;SDS011;3249;42.690;23.260;2022-11-15T10:01:33;139.90;;;68.80;;
6432;SDS011;3249;42.690;23.260;2022-11-15T10:04:00;130.60;;;64.03;;
6432;SDS011;3249;42.690;23.260;2022-11-15T10:06:26;145.70;;;69.87;;
6432;SDS011;3249;42.690;23.260;2022-11-15T10:08:58;131.80;;;64.90;;
6432;SDS011;3249;42.690;23.260;2022-11-15T10:11:33;134.03;;;66.33;;
6432;SDS011;3249;42.690;23.260;2022-11-15T10:14:02;126.90;;;64.97;;
6432;SDS011;3249;42.690;23.260;2022-11-15T10:22:24;121.37;;;64.10;;
6432;SDS011;3249;42.690;23.260;2022-11-15T10:24:52;129.10;;;66.37;;
6432;SDS011;3249;42.690;23.260;2022-11-15T10:27:39;118.57;;;67.60;;
6432;SDS011;3249;42.690;23.260;2022-11-15T10:30:14;111.87;;;62.47;;
6432;SDS011;3249;42.690;23.260;2022-11-15T10:32:42;121.70;;;65.13;;
6432;SDS011;3249;42.690;23.260;2022-11-15T10:35:24;129.17;;;74.97;;
6432;SDS011;3249;42.690;23.260;2022-11-15T10:37:51;132.97;;;78.23;;
6432;SDS011;3249;42.690;23.260;2022-11-15T10:40:18;125.90;;;78.00;;
6432;SDS011;3249;42.690;23.260;2022-11-15T10:42:48;131.70;;;78.73;;
6432;SDS011;3249;42.690;23.260;2022-11-15T10:45:30;126.60;;;73.57;;
6432;SDS011;3249;42.690;23.260;2022-11-15T10:50:54;127.10;;;70.80;;
6432;SDS011;3249;42.690;23.260;2022-11-15T10:56:00;108.33;;;63.40;;
6432;SDS011;3249;42.690;23.260;2022-11-15T10:58:44;113.90;;;66.73;;
6432;SDS011;3249;42.690;23.260;2022-11-15T11:01:18;109.23;;;63.90;;
6432;SDS011;3249;42.690;23.260;2022-11-15T11:04:03;118.53;;;72.60;;
6432;SDS011;3249;42.690;23.260;2022-11-15T11:06:46;113.50;;;62.10;;
6432;SDS011;3249;42.690;23.260;2022-11-15T11:09:20;113.20;;;61.63;;
6432;SDS011;3249;42.690;23.260;2022-11-15T11:11:57;107.10;;;63.33;;
6432;SDS011;3249;42.690;23.260;2022-11-15T11:14:27;103.70;;;63.27;;
6432;SDS011;3249;42.690;23.260;2022-11-15T11:47:55;105.60;;;58.70;;
6432;SDS011;3249;42.690;23.260;2022-11-15T11:50:38;105.40;;;63.20;;
6432;SDS011;3249;42.690;23.260;2022-11-15T11:56:21;114.73;;;65.27;;
6432;SDS011;3249;42.690;23.260;2022-11-15T11:59:07;127.00;;;68.20;;
6432;SDS011;3249;42.690;23.260;2022-11-15T12:01:44;108.53;;;61.53;;
6432;SDS011;3249;42.690;23.260;2022-11-15T12:04:16;125.30;;;68.67;;
6432;SDS011;3249;42.690;23.260;2022-11-15T12:06:50;114.33;;;65.40;;
6432;SDS011;3249;42.690;23.260;2022-11-15T12:14:55;129.93;;;69.60;;
6432;SDS011;3249;42.690;23.260;2022-11-15T12:17:33;115.93;;;66.73;;
6432;SDS011;3249;42.690;23.260;2022-11-15T12:20:02;121.17;;;67.03;;
6432;SDS011;3249;42.690;23.260;2022-11-15T12:22:39;128.97;;;72.57;;
6432;SDS011;3249;42.690;23.260;2022-11-15T12:25:14;110.13;;;64.40;;
6432;SDS011;3249;42.690;23.260;2022-11-15T12:28:12;114.80;;;63.13;;
6432;SDS011;3249;42.690;23.260;2022-11-15T12:30:50;112.87;;;67.47;;
6432;SDS011;3249;42.690;23.260;2022-11-15T12:33:30;125.43;;;69.93;;
6432;SDS011;3249;42.690;23.260;2022-11-15T12:36:03;112.33;;;64.70;;
6432;SDS011;3249;42.690;23.260;2022-11-15T12:41:16;118.60;;;68.90;;
6432;SDS011;3249;42.690;23.260;2022-11-15T12:43:44;122.07;;;70.37;;
6432;SDS011;3249;42.690;23.260;2022-11-15T12:46:12;121.53;;;69.00;;
6432;SDS011;3249;42.690;23.260;2022-11-15T12:48:47;111.67;;;66.00;;
6432;SDS011;3249;42.690;23.260;2022-11-15T12:51:19;123.20;;;68.80;;
6432;SDS011;3249;42.690;23.260;2022-11-15T12:53:46;133.90;;;72.87;;
6432;SDS011;3249;42.690;23.260;2022-11-15T13:09:57;114.67;;;63.43;;
6432;SDS011;3249;42.690;23.260;2022-11-15T13:19:45;115.33;;;67.20;;
6432;SDS011;3249;42.690;23.260;2022-11-15T13:22:12;123.00;;;72.13;;
6432;SDS011;3249;42.690;23.260;2022-11-15T13:24:57;127.10;;;72.13;;
6432;SDS011;3249;42.690;23.260;2022-11-15T13:27:23;134.20;;;82.23;;
6432;SDS011;3249;42.690;23.260;2022-11-15T13:29:49;135.00;;;80.27;;
6432;SDS011;3249;42.690;23.260;2022-11-15T13:32:15;133.10;;;78.43;;
6432;SDS011;3249;42.690;23.260;2022-11-15T13:34:48;129.87;;;77.70;;
6432;SDS011;3249;42.690;23.260;2022-11-15T13:39:45;126.03;;;78.67;;
6432;SDS011;3249;42.690;23.260;2022-11-15T13:42:15;121.40;;;72.87;;
6432;SDS011;3249;42.690;23.260;2022-11-15T13:44:54;122.30;;;72.63;;
6432;SDS011;3249;42.690;23.260;2022-11-15T13:47:21;123.23;;;72.93;;
6432;SDS011;3249;42.690;23.260;2022-11-15T13:49:49;128.67;;;74.07;;
6432;SDS011;3249;42.690;23.260;2022-11-15T13:52:15;124.93;;;74.27;;
6432;SDS011;3249;42.690;23.260;2022-11-15T13:57:11;134.23;;;79.27;;
6432;SDS011;3249;42.690;23.260;2022-11-15T13:59:46;124.63;;;69.07;;
6432;SDS011;3249;42.690;23.260;2022-11-15T14:02:19;126.13;;;70.30;;
6432;SDS011;3249;42.690;23.260;2022-11-15T14:04:53;127.03;;;72.90;;
6432;SDS011;3249;42.690;23.260;2022-11-15T14:07:21;111.53;;;66.07;;
6432;SDS011;3249;42.690;23.260;2022-11-15T14:09:49;111.47;;;66.67;;
6432;SDS011;3249;42.690;23.260;2022-11-15T14:12:25;106.53;;;61.87;;
6432;SDS011;3249;42.690;23.260;2022-11-15T14:14:59;109.77;;;61.43;;
6432;SDS011;3249;42.690;23.260;2022-11-15T14:19:54;94.50;;;58.50;;
6432;SDS011;3249;42.690;23.260;2022-11-15T14:27:37;106.83;;;62.23;;
6432;SDS011;3249;42.690;23.260;2022-11-15T14:30:03;99.47;;;58.13;;
6432;SDS011;3249;42.690;23.260;2022-11-15T14:32:37;99.87;;;58.07;;
6432;SDS011;3249;42.690;23.260;2022-11-15T14:35:16;102.87;;;54.70;;
6432;SDS011;3249;42.690;23.260;2022-11-15T14:37:43;86.97;;;51.97;;
6432;SDS011;3249;42.690;23.260;2022-11-15T14:40:11;81.80;;;46.67;;
6432;SDS011;3249;42.690;23.260;2022-11-15T14:42:43;90.03;;;50.23;;
6432;SDS011;3249;42.690;23.260;2022-11-15T14:45:19;88.00;;;49.47;;
6432;SDS011;3249;42.690;23.260;2022-11-15T14:47:46;76.83;;;47.50;;
6432;SDS011;3249;42.690;23.260;2022-11-15T14:50:15;89.67;;;50.03;;
6432;SDS011;3249;42.690;23.260;2022-11-15T14:52:43;77.73;;;49.40;;
6432;SDS011;3249;42.690;23.260;2022-11-15T14:57:46;91.70;;;53.13;;
6432;SDS011;3249;42.690;23.260;2022-11-15T15:00:12;94.60;;;53.67;;
6432;SDS011;3249;42.690;23.260;2022-11-15T15:02:38;94.87;;;55.93;;
6432;SDS011;3249;42.690;23.260;2022-11-15T15:07:48;94.00;;;53.43;;
6432;SDS011;3249;42.690;23.260;2022-11-15T15:10:14;99.67;;;54.63;;
6432;SDS011;3249;42.690;23.260;2022-11-15T15:12:41;103.00;;;54.97;;
6432;SDS011;3249;42.690;23.260;2022-11-15T15:15:12;103.53;;;57.60;;
6432;SDS011;3249;42.690;23.260;2022-11-15T15:17:41;140.03;;;72.87;;
6432;SDS011;3249;42.690;23.260;2022-11-15T15:20:08;169.40;;;81.63;;
6432;SDS011;3249;42.690;23.260;2022-11-15T15:22:34;134.63;;;72.23;;
6432;SDS011;3249;42.690;23.260;2022-11-15T15:25:00;149.97;;;77.47;;
6432;SDS011;3249;42.690;23.260;2022-11-15T15:27:25;138.43;;;71.40;;
6432;SDS011;3249;42.690;23.260;2022-11-15T15:29:51;148.47;;;74.47;;
6432;SDS011;3249;42.690;23.260;2022-11-15T15:32:16;145.50;;;74.07;;
6432;SDS011;3249;42.690;23.260;2022-11-15T15:34:41;132.70;;;67.53;;
6432;SDS011;3249;42.690;23.260;2022-11-15T15:37:28;146.90;;;70.40;;
6432;SDS011;3249;42.690;23.260;2022-11-15T15:39:55;135.77;;;66.83;;
6432;SDS011;3249;42.690;23.260;2022-11-15T15:42:21;140.43;;;70.90;;
6432;SDS011;3249;42.690;23.260;2022-11-15T15:44:48;146.43;;;79.43;;
6432;SDS011;3249;42.690;23.260;2022-11-15T15:47:18;148.67;;;84.87;;
6432;SDS011;3249;42.690;23.260;2022-11-15T15:49:46;178.03;;;93.33;;
6432;SDS011;3249;42.690;23.260;2022-11-15T15:52:12;229.57;;;123.40;;
6432;SDS011;3249;42.690;23.260;2022-11-15T15:54:38;212.23;;;113.07;;
6432;SDS011;3249;42.690;23.260;2022-11-15T15:57:05;236.37;;;126.60;;
6432;SDS011;3249;42.690;23.260;2022-11-15T15:59:32;256.20;;;139.43;;
6432;SDS011;3249;42.690;23.260;2022-11-15T16:01:57;190.97;;;107.23;;
6432;SDS011;3249;42.690;23.260;2022-11-15T16:04:23;198.47;;;107.93;;
6432;SDS011;3249;42.690;23.260;2022-11-15T16:06:48;208.70;;;110.27;;
6432;SDS011;3249;42.690;23.260;2022-11-15T16:09:16;210.53;;;125.43;;
6432;SDS011;3249;42.690;23.260;2022-11-15T16:11:45;248.07;;;142.10;;
6432;SDS011;3249;42.690;23.260;2022-11-15T16:14:11;304.33;;;200.67;;
6432;SDS011;3249;42.690;23.260;2022-11-15T16:16:37;313.30;;;197.73;;
6432;SDS011;3249;42.690;23.260;2022-11-15T16:19:03;309.63;;;202.20;;
6432;SDS011;3249;42.690;23.260;2022-11-15T16:21:29;295.43;;;191.33;;
6432;SDS011;3249;42.690;23.260;2022-11-15T16:23:55;252.83;;;157.67;;
6432;SDS011;3249;42.690;23.260;2022-11-15T16:26:22;190.90;;;114.37;;
6432;SDS011;3249;42.690;23.260;2022-11-15T16:28:49;158.37;;;92.53;;
6432;SDS011;3249;42.690;23.260;2022-11-15T16:31:15;153.23;;;91.20;;
6432;SDS011;3249;42.690;23.260;2022-11-15T16:33:43;117.37;;;72.57;;
6432;SDS011;3249;42.690;23.260;2022-11-15T16:38:50;128.80;;;69.60;;
6432;SDS011;3249;42.690;23.260;2022-11-15T16:41:16;100.67;;;58.67;;
6432;SDS011;3249;42.690;23.260;2022-11-15T16:43:43;144.83;;;74.97;;
6432;SDS011;3249;42.690;23.260;2022-11-15T16:46:22;142.93;;;76.70;;
6432;SDS011;3249;42.690;23.260;2022-11-15T16:48:49;142.77;;;74.00;;